Time;durP1;ratioP1;P1;durP2;ratioP2;P2;SDS_P1;SDS_P2;PMS_P1;PMS_P2;Temp;Humidity;BMP_temperature;BMP_pressure;BME280_temperature;BME280_humidity;BME280_pressure;Samples;Min_cycle;Max_cycle;Signal;HPM_P1;HPM_P2
2023/12/26 00:04:23;;;;;;;13.30;3.30;;;;;;;4.30;78.29;99412.00;110515;1229;1016028;-78
2023/12/26 00:09:37;;;;;;;12.20;3.10;;;;;;;4.33;78.30;99417.23;110579;1229;1050605;-78
2023/12/26 00:14:49;;;;;;;13.70;3.50;;;;;;;4.31;78.62;99422.15;110537;1228;1058847;-78
2023/12/26 00:19:46;;;;;;;8.50;2.70;;;;;;;4.30;78.64;99430.55;110558;1228;1072538;-78
2023/12/26 00:24:48;;;;;;;9.10;3.00;;;;;;;4.31;78.58;99426.79;110419;1229;1066158;-78
2023/12/26 00:29:56;;;;;;;11.50;3.50;;;;;;;4.31;78.78;99434.17;110465;1228;1072844;-78
2023/12/26 00:34:53;;;;;;;8.80;3.10;;;;;;;4.31;78.90;99445.47;110491;1228;1051349;-78
2023/12/26 00:39:49;;;;;;;11.30;5.20;;;;;;;4.29;79.08;99458.15;110416;1228;1058651;-78
2023/12/26 00:44:47;;;;;;;11.10;3.30;;;;;;;4.31;79.10;99457.64;110626;1228;1018721;-78
2023/12/26 00:49:46;;;;;;;14.10;4.20;;;;;;;4.33;79.23;99462.35;110658;1228;1064750;-79
2023/12/26 00:54:49;;;;;;;8.90;3.00;;;;;;;4.36;79.08;99471.66;110602;1229;1070893;-78
2023/12/26 00:59:49;;;;;;;11.20;3.50;;;;;;;4.33;78.99;99476.91;110581;1228;1051238;-78
2023/12/26 01:04:42;;;;;;;11.60;2.70;;;;;;;4.28;79.29;99480.42;110531;1228;1057791;-79
2023/12/26 01:09:45;;;;;;;11.20;3.10;;;;;;;4.25;79.31;99481.56;110517;1228;1072197;-78
2023/12/26 01:14:41;;;;;;;13.50;3.60;;;;;;;4.23;79.49;99482.53;110539;1228;1065341;-78
2023/12/26 01:19:39;;;;;;;7.80;3.00;;;;;;;4.23;79.50;99483.04;111299;1229;1070561;31
2023/12/26 01:29:50;;;;;;;10.30;3.00;;;;;;;4.23;79.73;99476.70;110182;1234;1061046;-78
2023/12/26 01:34:44;;;;;;;9.90;3.70;;;;;;;4.20;79.64;99473.23;110192;1231;1072932;-78
2023/12/26 01:39:38;;;;;;;9.50;3.00;;;;;;;4.19;79.63;99470.77;110260;1232;1016368;-78
2023/12/26 01:44:29;;;;;;;15.40;3.00;;;;;;;4.20;79.69;99464.13;110249;1231;1016385;-78
2023/12/26 01:49:21;;;;;;;10.70;4.00;;;;;;;4.26;79.35;99456.70;110238;1234;1060986;-78
2023/12/26 01:54:16;;;;;;;14.80;2.90;;;;;;;4.31;79.36;99455.60;110331;1231;1072106;-78
2023/12/26 01:59:08;;;;;;;9.20;2.70;;;;;;;4.37;79.39;99460.88;110198;1231;1016130;-78
2023/12/26 02:04:04;;;;;;;10.00;2.80;;;;;;;4.43;79.20;99460.50;110250;1234;1071184;-78
2023/12/26 02:08:58;;;;;;;10.20;3.50;;;;;;;4.48;79.12;99466.27;110244;1234;1016138;-77
2023/12/26 02:13:50;;;;;;;11.40;3.20;;;;;;;4.54;79.23;99459.37;110358;1231;1015836;-78
2023/12/26 02:18:42;;;;;;;9.20;2.30;;;;;;;4.59;79.19;99457.58;110275;1232;1065124;-78
2023/12/26 02:23:35;;;;;;;12.90;3.10;;;;;;;4.62;79.18;99455.06;110206;1231;1016237;-78
2023/12/26 02:28:28;;;;;;;10.40;3.30;;;;;;;4.62;79.26;99449.40;110262;1232;1016195;-78
2023/12/26 02:33:22;;;;;;;9.40;2.80;;;;;;;4.61;79.34;99434.79;110308;1234;1016719;-78
2023/12/26 02:38:14;;;;;;;6.40;3.00;;;;;;;4.65;79.49;99429.89;110334;1232;1016321;-78
2023/12/26 02:43:07;;;;;;;7.20;3.30;;;;;;;4.67;79.63;99430.43;110106;1231;1070322;-78
2023/12/26 02:47:58;;;;;;;13.60;3.80;;;;;;;4.65;79.84;99433.84;110221;1231;1016286;-78
2023/12/26 02:52:50;;;;;;;11.20;2.70;;;;;;;4.62;79.91;99436.54;110215;1231;1071458;-78
2023/12/26 02:57:42;;;;;;;6.50;2.40;;;;;;;4.56;80.11;99434.17;110285;1234;1018040;-78
2023/12/26 03:02:34;;;;;;;7.80;2.90;;;;;;;4.52;80.39;99439.76;110149;1231;1050595;-78
2023/12/26 03:07:25;;;;;;;9.80;3.20;;;;;;;4.49;80.57;99445.19;110251;1231;1016160;-78
2023/12/26 03:12:16;;;;;;;9.40;2.50;;;;;;;4.46;80.70;99442.04;110253;1231;1063982;-78
2023/12/26 03:17:08;;;;;;;6.80;2.70;;;;;;;4.44;80.93;99429.82;110241;1234;1017371;-78
2023/12/26 03:21:59;;;;;;;8.50;2.50;;;;;;;4.44;81.09;99430.15;110291;1231;1058312;-78
2023/12/26 03:26:51;;;;;;;6.10;3.50;;;;;;;4.43;81.27;99417.26;110350;1231;1016454;-78
2023/12/26 03:31:45;;;;;;;6.10;2.30;;;;;;;4.42;81.45;99404.19;110219;1230;1070880;-78
2023/12/26 03:36:48;;;;;;;7.10;2.60;;;;;;;4.37;81.71;99390.71;110192;1235;1018757;-78
2023/12/26 03:41:40;;;;;;;8.50;2.80;;;;;;;4.36;81.84;99384.86;110239;1231;1059943;-78
2023/12/26 03:46:32;;;;;;;8.00;2.80;;;;;;;4.35;82.05;99384.67;110284;1235;1016293;-78
2023/12/26 03:51:24;;;;;;;6.10;2.30;;;;;;;4.36;82.19;99376.45;110179;1231;1070519;-78
2023/12/26 03:56:16;;;;;;;5.60;2.40;;;;;;;4.37;82.31;99375.27;110224;1231;1017419;-78
2023/12/26 04:01:07;;;;;;;9.20;3.20;;;;;;;4.41;82.57;99377.75;110171;1231;1072957;-78
2023/12/26 04:05:59;;;;;;;9.10;2.90;;;;;;;4.43;82.93;99374.55;110214;1234;1016237;-78
2023/12/26 04:10:52;;;;;;;3.60;2.60;;;;;;;4.46;82.99;99367.40;110209;1231;1050461;-78
2023/12/26 04:15:44;;;;;;;9.10;3.70;;;;;;;4.48;83.10;99363.15;110146;1231;1019226;-78
2023/12/26 04:20:35;;;;;;;6.90;2.70;;;;;;;4.50;83.27;99360.27;110220;1231;1016416;-78
2023/12/26 04:25:27;;;;;;;11.70;3.90;;;;;;;4.50;83.48;99346.02;110170;1231;1073051;-78
2023/12/26 04:30:19;;;;;;;7.60;2.90;;;;;;;4.49;83.33;99334.52;110309;1231;1016188;-78
2023/12/26 04:35:11;;;;;;;6.60;2.60;;;;;;;4.49;83.46;99329.88;110238;1232;1074115;-78
2023/12/26 04:40:03;;;;;;;5.40;3.10;;;;;;;4.50;83.64;99317.38;110253;1236;1017221;-78
2023/12/26 04:44:55;;;;;;;7.00;2.80;;;;;;;4.53;83.72;99312.29;110206;1231;1051235;-78
2023/12/26 04:49:46;;;;;;;7.90;2.90;;;;;;;4.56;83.97;99308.55;110149;1234;1016527;-78
2023/12/26 04:54:37;;;;;;;5.90;3.40;;;;;;;4.58;84.20;99306.36;110225;1231;1065525;-78
2023/12/26 04:59:29;;;;;;;9.00;3.20;;;;;;;4.60;84.22;99300.21;110276;1231;1016300;-78
2023/12/26 05:04:20;;;;;;;5.90;3.40;;;;;;;4.60;84.29;99297.14;110233;1231;1059140;-78
2023/12/26 05:09:12;;;;;;;6.40;3.40;;;;;;;4.61;84.50;99291.13;110263;1234;1016908;-78
2023/12/26 05:14:03;;;;;;;5.30;3.30;;;;;;;4.60;84.63;99285.80;110218;1232;1070410;-78
2023/12/26 05:18:55;;;;;;;7.40;3.40;;;;;;;4.59;84.76;99280.63;110258;1231;1019061;-78
2023/12/26 05:23:47;;;;;;;4.80;3.10;;;;;;;4.59;85.09;99266.22;110190;1231;1072915;-77
2023/12/26 05:28:39;;;;;;;8.30;3.70;;;;;;;4.58;85.30;99255.05;110186;1231;1015879;-77
2023/12/26 05:33:32;;;;;;;9.70;3.40;;;;;;;4.58;85.45;99244.77;110182;1231;1016228;-78
2023/12/26 05:38:24;;;;;;;6.10;2.90;;;;;;;4.57;85.57;99236.67;110330;1230;1057905;-77
2023/12/26 05:43:16;;;;;;;5.90;3.30;;;;;;;4.57;85.84;99234.27;110298;1234;1017048;-77
2023/12/26 05:48:07;;;;;;;9.20;3.60;;;;;;;4.58;86.11;99225.36;110319;1235;1070435;-77
2023/12/26 05:53:08;;;;;;;8.80;3.80;;;;;;;4.59;86.32;99215.08;110183;1231;1051245;-77
2023/12/26 05:58:00;;;;;;;5.70;3.40;;;;;;;4.60;86.50;99209.60;110259;1231;1016138;-77
2023/12/26 06:02:51;;;;;;;7.70;3.30;;;;;;;4.64;86.84;99204.16;110207;1231;1064878;-78
2023/12/26 06:07:43;;;;;;;6.50;3.60;;;;;;;4.68;87.16;99204.94;110189;1231;1016374;-78
2023/12/26 06:12:37;;;;;;;7.10;4.20;;;;;;;4.74;87.34;99197.98;110122;1231;1057843;-78
2023/12/26 06:17:34;;;;;;;6.60;4.00;;;;;;;4.76;87.42;99191.67;110177;1234;1016208;-78
2023/12/26 06:22:39;;;;;;;;;;;;;;;;;;;;;
2023/12/26 06:27:31;;;;;;;6.40;4.50;;;;;;;4.85;88.19;99173.61;110170;1231;1070638;-77
2023/12/26 06:32:25;;;;;;;7.80;4.40;;;;;;;4.89;88.37;99169.73;110222;1231;1016089;-77
2023/12/26 06:37:31;;;;;;;;;;;;;;;;;;;;;
2023/12/26 06:42:31;;;;;;;7.40;3.70;;;;;;;4.94;88.71;99157.10;110151;1231;1065604;-77
2023/12/26 06:47:29;;;;;;;4.60;3.90;;;;;;;4.99;89.04;99148.07;110121;1231;1072622;-78
2023/12/26 06:52:21;;;;;;;5.80;3.90;;;;;;;5.03;89.04;99140.56;110162;1231;1051107;-77
2023/12/26 06:57:15;;;;;;;5.50;3.40;;;;;;;5.07;89.46;99139.08;110274;1231;1016455;-77
2023/12/26 07:02:11;;;;;;;5.00;3.60;;;;;;;5.16;89.90;99132.50;110192;1231;1065270;-77
2023/12/26 07:07:06;;;;;;;4.10;3.80;;;;;;;5.23;89.93;99124.86;110229;1231;1071535;-77
2023/12/26 07:11:58;;;;;;;5.50;3.90;;;;;;;5.28;90.18;99114.79;110274;1231;1016283;-77
2023/12/26 07:16:49;;;;;;;6.30;3.50;;;;;;;5.39;90.57;99108.39;110205;1232;1072540;-77
2023/12/26 07:21:41;;;;;;;6.90;3.90;;;;;;;5.46;90.69;99095.93;110187;1234;1016233;-77
2023/12/26 07:26:33;;;;;;;5.60;4.20;;;;;;;5.55;91.17;99092.94;110255;1231;1050970;-77
2023/12/26 07:31:25;;;;;;;5.70;3.60;;;;;;;5.67;91.42;99081.20;110281;1236;1015731;-78
2023/12/26 11:34:51;;;;;;;2.00;1.40;;;;;;;9.38;92.64;99085.02;110647;1232;1050635;-84
2023/12/26 11:39:45;;;;;;;1.40;1.30;;;;;;;9.29;92.68;99086.78;110530;1232;1057951;-82
2023/12/26 11:44:36;;;;;;;1.50;1.40;;;;;;;9.22;92.96;99099.77;110594;1234;1018139;-82
2023/12/26 11:49:28;;;;;;;1.70;1.20;;;;;;;9.13;93.23;99105.68;110597;1235;1071177;-81
2023/12/26 11:54:20;;;;;;;2.20;1.50;;;;;;;9.07;93.47;99108.81;110559;1232;1016181;-83
2023/12/26 11:59:11;;;;;;;1.70;1.60;;;;;;;9.07;93.70;99120.05;110585;1232;1073534;-81
2023/12/26 12:04:03;;;;;;;1.90;1.70;;;;;;;9.06;93.77;99130.77;110576;1234;1016177;-80
2023/12/26 12:09:04;;;;;;;2.00;1.70;;;;;;;9.06;93.63;99143.56;110482;1234;1050577;-81
2023/12/26 12:13:56;;;;;;;4.90;2.30;;;;;;;9.08;93.50;99143.55;110403;1232;1058264;-80
2023/12/26 12:18:56;;;;;;;2.80;1.60;;;;;;;9.07;93.15;99152.19;110570;1234;1016376;-81
2023/12/26 12:23:48;;;;;;;3.70;1.40;;;;;;;9.06;92.89;99148.39;110464;1232;1073413;-81
2023/12/26 12:29:02;;;;;;;1.50;1.30;;;;;;;9.04;92.74;99142.70;110478;1234;1016470;-80
2023/12/26 12:34:12;;;;;;;2.60;1.60;;;;;;;9.06;92.39;99153.93;110342;1230;1073154;-81
2023/12/26 12:39:03;;;;;;;1.90;1.40;;;;;;;9.03;92.17;99152.04;110453;1231;1065055;-80
2023/12/26 12:43:55;;;;;;;2.90;1.70;;;;;;;9.03;92.07;99162.92;110506;1234;1016232;-79
2023/12/26 12:48:46;;;;;;;1.90;1.70;;;;;;;9.02;91.76;99175.70;110418;1232;1058613;-81
2023/12/26 12:53:40;;;;;;;2.60;1.80;;;;;;;8.99;91.45;99181.07;110423;1234;1016422;-82
2023/12/26 12:58:32;;;;;;;1.70;1.50;;;;;;;8.96;91.18;99180.55;110407;1232;1075892;-79
2023/12/26 13:03:23;;;;;;;2.20;1.50;;;;;;;8.92;90.92;99189.03;110467;1232;1015930;-80
2023/12/26 13:08:22;;;;;;;3.30;1.70;;;;;;;8.88;90.72;99189.02;110387;1230;1075210;-81
2023/12/26 13:13:14;;;;;;;1.70;1.40;;;;;;;8.85;90.25;99204.58;110730;1234;1016243;-81
2023/12/26 13:18:05;;;;;;;1.60;1.30;;;;;;;8.82;89.99;99210.63;110544;1232;1051371;-81
2023/12/26 13:22:57;;;;;;;2.60;1.60;;;;;;;8.78;89.51;99215.81;110601;1231;1016102;-80
2023/12/26 13:27:48;;;;;;;2.80;1.80;;;;;;;8.72;88.99;99217.54;110496;1232;1067314;-81
2023/12/26 13:32:40;;;;;;;2.20;1.50;;;;;;;8.66;88.64;99223.05;110340;1232;1016131;-81
2023/12/26 13:37:31;;;;;;;2.70;1.70;;;;;;;8.58;88.18;99222.70;110364;1232;1058262;-80
2023/12/26 13:42:22;;;;;;;2.50;1.20;;;;;;;8.46;87.64;99224.58;110413;1231;1016161;-79
2023/12/26 13:47:14;;;;;;;3.80;1.90;;;;;;;8.34;87.50;99232.64;110288;1232;1071270;-80
2023/12/26 13:52:05;;;;;;;1.90;1.30;;;;;;;8.24;87.12;99243.85;110544;1232;1016326;-80
2023/12/26 13:56:57;;;;;;;2.50;1.60;;;;;;;8.18;86.78;99247.45;110533;1232;1072444;-80
2023/12/26 14:01:49;;;;;;;3.40;2.20;;;;;;;8.13;86.73;99253.30;110514;1234;1016446;-80
2023/12/26 14:06:40;;;;;;;6.00;2.00;;;;;;;8.08;86.55;99261.40;110509;1232;1050229;-80
2023/12/26 14:11:32;;;;;;;4.80;1.90;;;;;;;8.04;86.86;99262.06;110400;1232;1016371;-81
2023/12/26 14:16:23;;;;;;;2.10;1.70;;;;;;;8.04;87.33;99278.28;110547;1232;1065227;-82
2023/12/26 14:21:15;;;;;;;2.30;1.90;;;;;;;8.10;87.10;99285.75;110579;1232;1015989;-83
2023/12/26 14:26:07;;;;;;;3.10;1.80;;;;;;;8.18;87.19;99299.41;110578;1231;1057994;-82
2023/12/26 14:31:00;;;;;;;3.20;2.10;;;;;;;8.23;86.94;99303.73;110649;1232;1016410;-81
2023/12/26 14:35:52;;;;;;;1.50;1.20;;;;;;;8.24;86.77;99311.33;110592;1232;1074084;-79
2023/12/26 14:40:46;;;;;;;5.50;1.90;;;;;;;8.19;86.71;99318.23;110557;1234;1016022;-82
2023/12/26 14:46:31;;;;;;;1.80;1.50;;;;;;;8.15;86.60;99330.46;110496;1230;1072981;-80
2023/12/26 14:58:07;;;;;;;3.20;1.80;;;;;;;7.88;86.06;99354.83;109053;1241;1071228;-86
2023/12/26 15:02:58;;;;;;;4.20;1.90;;;;;;;7.79;85.88;99362.70;109094;1241;1018594;-84
2023/12/26 15:07:50;;;;;;;4.90;1.40;;;;;;;7.70;85.85;99364.89;109051;1241;1071554;-84
2023/12/26 15:12:43;;;;;;;3.40;1.40;;;;;;;7.63;85.43;99362.08;109068;1242;1016242;-87
2023/12/26 15:17:34;;;;;;;3.60;1.40;;;;;;;7.57;85.15;99366.35;108968;1241;1015575;-86
2023/12/26 15:22:27;;;;;;;3.60;1.40;;;;;;;7.51;85.03;99374.57;109267;1241;1058526;-89
2023/12/26 15:27:20;;;;;;;3.80;1.40;;;;;;;7.46;84.89;99378.84;110166;1231;1016415;-88
2023/12/26 15:32:11;;;;;;;2.10;1.60;;;;;;;7.44;84.77;99381.77;110492;1230;1015990;-86
2023/12/26 15:37:03;;;;;;;4.80;1.40;;;;;;;7.42;84.38;99384.16;110526;1232;1016181;-85
2023/12/26 15:41:54;;;;;;;2.20;1.50;;;;;;;7.40;84.35;99396.38;110493;1232;1057836;-86
2023/12/26 15:46:46;;;;;;;4.10;1.80;;;;;;;7.37;84.43;99412.40;110460;1232;1017979;-86
2023/12/26 15:51:41;;;;;;;2.10;1.70;;;;;;;7.43;84.74;99419.34;110460;1232;1070327;-86
2023/12/26 15:56:33;;;;;;;3.90;2.20;;;;;;;7.51;84.72;99427.85;110494;1232;1053568;-84
2023/12/26 16:01:25;;;;;;;5.30;2.10;;;;;;;7.49;84.74;99423.19;110538;1230;1016511;-86
2023/12/26 16:06:18;;;;;;;4.20;2.30;;;;;;;7.41;84.86;99429.84;110499;1231;1065046;-87
2023/12/26 16:11:09;;;;;;;4.00;2.80;;;;;;;7.30;85.05;99423.52;110487;1232;1016019;-87
2023/12/26 16:16:01;;;;;;;6.70;2.70;;;;;;;7.22;85.46;99423.62;110570;1231;1016331;-85
2023/12/26 16:20:53;;;;;;;5.80;2.90;;;;;;;7.15;85.49;99429.41;110548;1234;1071960;-84
2023/12/26 16:25:44;;;;;;;3.50;1.80;;;;;;;7.09;85.79;99444.68;110414;1233;1016041;-85
2023/12/26 16:30:35;;;;;;;4.60;1.90;;;;;;;7.04;85.81;99458.76;110562;1232;1051146;-86
2023/12/26 16:35:29;;;;;;;2.90;1.70;;;;;;;6.99;85.58;99456.99;110523;1231;1016431;-86
2023/12/26 16:40:21;;;;;;;3.60;2.00;;;;;;;6.98;85.61;99460.08;110569;1234;1015974;-86
2023/12/26 16:45:13;;;;;;;4.70;1.50;;;;;;;6.95;85.81;99469.33;110412;1233;1069755;-85
2023/12/26 16:50:07;;;;;;;2.20;2.00;;;;;;;6.91;85.93;99468.59;110457;1229;1015636;-89
2023/12/26 16:54:59;;;;;;;5.10;1.90;;;;;;;6.87;85.76;99472.19;110417;1232;1073222;-89
2023/12/26 16:59:50;;;;;;;5.00;2.40;;;;;;;6.85;85.82;99478.70;110566;1233;1016355;-90
2023/12/26 17:04:42;;;;;;;4.30;2.30;;;;;;;6.83;85.86;99492.45;110547;1230;1050437;-90
2023/12/26 17:09:34;;;;;;;4.90;1.90;;;;;;;6.88;85.77;99505.77;110542;1231;1016121;-89
2023/12/26 17:14:25;;;;;;;3.90;1.90;;;;;;;7.00;85.90;99516.08;110508;1230;1064720;-89
2023/12/26 17:19:16;;;;;;;4.60;2.00;;;;;;;7.06;86.36;99527.88;110558;1231;1016276;-89
2023/12/26 17:24:09;;;;;;;3.60;2.10;;;;;;;7.06;86.47;99540.63;110438;1231;1057788;-88
2023/12/26 17:29:02;;;;;;;4.80;2.60;;;;;;;7.03;87.00;99537.32;110446;1231;1016345;-89
2023/12/26 17:33:53;;;;;;;3.50;2.30;;;;;;;6.96;86.96;99538.42;110393;1233;1017875;-87
2023/12/26 17:38:45;;;;;;;2.30;1.50;;;;;;;6.84;86.64;99538.98;110375;1231;1050484;-88
2023/12/26 17:43:38;;;;;;;2.70;1.80;;;;;;;6.75;86.56;99540.57;110350;1231;1016081;-88
2023/12/26 17:48:30;;;;;;;8.90;2.90;;;;;;;6.70;86.60;99548.75;110240;1231;1016485;-91
2023/12/26 17:53:22;;;;;;;3.00;2.30;;;;;;;6.68;86.71;99552.36;110317;1230;1070455;-91
2023/12/26 17:58:13;;;;;;;3.80;2.30;;;;;;;6.66;86.80;99547.52;110416;1230;1017435;-90
2023/12/26 18:03:05;;;;;;;6.30;2.30;;;;;;;6.67;86.80;99553.55;110234;1230;1073800;-91
2023/12/26 18:07:57;;;;;;;5.10;3.50;;;;;;;6.69;86.82;99561.34;110266;1234;1016458;-91
2023/12/26 18:12:49;;;;;;;5.00;3.20;;;;;;;6.73;86.60;99568.44;110288;1230;1051139;-90
2023/12/26 18:17:42;;;;;;;8.70;4.00;;;;;;;6.75;86.27;99568.81;110375;1231;1016418;-91
2023/12/26 18:22:33;;;;;;;4.50;2.50;;;;;;;6.75;85.89;99570.17;110306;1231;1065450;-91
2023/12/26 18:27:25;;;;;;;4.90;2.90;;;;;;;6.71;85.37;99572.20;110356;1234;1016101;-89
2023/12/26 18:32:16;;;;;;;3.50;2.00;;;;;;;6.67;85.23;99588.15;110378;1231;1057992;-91
2023/12/26 18:37:08;;;;;;;4.00;2.50;;;;;;;6.62;84.84;99591.02;110321;1230;1017884;-89
2023/12/26 18:41:59;;;;;;;4.70;2.00;;;;;;;6.60;84.87;99588.40;110342;1231;1072219;-91
2023/12/26 18:46:50;;;;;;;4.00;1.90;;;;;;;6.62;84.42;99593.77;110264;1230;1016428;-91
2023/12/26 18:51:43;;;;;;;5.70;2.30;;;;;;;6.70;84.07;99600.09;110242;1231;1072142;-89
2023/12/26 18:56:34;;;;;;;3.20;1.90;;;;;;;6.77;83.49;99600.17;110303;1234;1016412;-90
2023/12/26 19:01:27;;;;;;;2.60;1.70;;;;;;;6.83;82.89;99608.20;110276;1231;1050394;-90
2023/12/26 19:06:19;;;;;;;3.20;1.60;;;;;;;6.89;82.70;99608.80;110249;1232;1015997;-89
2023/12/26 19:11:15;;;;;;;3.50;1.30;;;;;;;6.94;82.42;99606.10;110295;1231;1067515;-90
2023/12/26 19:16:07;;;;;;;4.20;1.40;;;;;;;6.99;81.92;99610.64;110237;1231;1073603;-90
2023/12/26 19:20:58;;;;;;;4.60;1.70;;;;;;;7.01;81.44;99608.45;110270;1230;1016125;-90
2023/12/26 19:25:50;;;;;;;3.10;1.50;;;;;;;7.04;81.51;99613.14;110274;1234;1072470;-91
2023/12/26 19:30:41;;;;;;;4.90;1.90;;;;;;;7.06;80.92;99614.89;110306;1234;1016038;-90
2023/12/26 19:35:33;;;;;;;4.20;1.60;;;;;;;7.10;80.52;99614.08;110175;1231;1050717;-89
2023/12/26 19:40:25;;;;;;;3.50;1.90;;;;;;;7.13;80.36;99617.58;110296;1230;1018261;-89
2023/12/26 19:45:18;;;;;;;3.00;1.40;;;;;;;7.15;79.94;99621.73;110313;1231;1065982;-87
2023/12/26 19:50:11;;;;;;;4.10;1.40;;;;;;;7.17;79.73;99623.14;110512;1231;1016344;-88
2023/12/26 19:55:04;;;;;;;3.10;1.60;;;;;;;7.19;79.53;99623.50;110541;1231;1016457;-83
2023/12/26 19:59:55;;;;;;;3.00;1.70;;;;;;;7.18;79.43;99633.15;110601;1233;1015990;-90
2023/12/26 20:04:47;;;;;;;3.60;1.80;;;;;;;7.19;79.15;99637.13;110584;1230;1016108;-90
2023/12/26 20:09:40;;;;;;;6.30;2.50;;;;;;;7.18;79.00;99636.08;110473;1231;1070875;-90
2023/12/26 20:14:31;;;;;;;6.50;2.00;;;;;;;7.18;78.37;99634.70;110527;1230;1016449;-89
2023/12/26 20:19:22;;;;;;;3.70;1.70;;;;;;;7.18;77.84;99636.77;110357;1231;1016426;-90
2023/12/26 20:24:15;;;;;;;7.10;2.20;;;;;;;7.17;78.23;99649.34;110372;1230;1065073;-90
2023/12/26 20:29:06;;;;;;;6.40;1.90;;;;;;;7.16;78.15;99655.18;110441;1234;1015999;-90
2023/12/26 20:33:58;;;;;;;6.60;2.00;;;;;;;7.14;78.03;99663.25;110449;1231;1057842;-90
2023/12/26 20:38:49;;;;;;;3.90;1.90;;;;;;;7.14;77.76;99663.59;110465;1231;1016025;-89
2023/12/26 20:55:29;;;;;;;6.60;1.80;;;;;;;7.11;77.68;99657.02;110510;1230;1057952;-88
2023/12/26 21:00:21;;;;;;;5.30;2.20;;;;;;;7.11;77.24;99659.59;110476;1232;1016185;-87
2023/12/26 21:05:13;;;;;;;5.60;2.10;;;;;;;7.11;77.19;99666.65;110583;1234;1016305;-88
2023/12/26 21:10:07;;;;;;;5.00;2.00;;;;;;;7.11;77.14;99670.44;110385;1234;1052203;-89
2023/12/26 21:14:59;;;;;;;5.50;2.50;;;;;;;7.12;76.86;99667.20;110370;1231;1016407;-89
2023/12/26 21:19:50;;;;;;;5.30;2.20;;;;;;;7.13;76.60;99664.43;110544;1233;1015907;-89
2023/12/26 21:24:42;;;;;;;4.20;2.80;;;;;;;7.13;76.20;99671.67;110471;1230;1071758;-88
2023/12/26 21:29:37;;;;;;;2.60;1.40;;;;;;;7.14;76.02;99672.90;110523;1233;1016374;-89
2023/12/26 21:34:28;;;;;;;3.90;1.80;;;;;;;7.14;76.04;99673.59;110339;1233;1072137;-88
2023/12/26 21:39:20;;;;;;;2.60;1.70;;;;;;;7.13;75.91;99682.52;110543;1234;1016336;-89
2023/12/26 21:44:13;;;;;;;4.80;1.90;;;;;;;7.14;76.13;99694.44;110383;1230;1049643;-87
2023/12/26 21:49:05;;;;;;;4.80;2.00;;;;;;;7.13;75.75;99696.14;110513;1230;1016206;-88
2023/12/26 21:53:56;;;;;;;5.60;2.40;;;;;;;7.13;75.75;99694.09;110462;1230;1016149;-89
2023/12/26 21:58:48;;;;;;;4.00;1.90;;;;;;;7.12;75.67;99697.85;110483;1231;1070318;-90
2023/12/26 22:03:41;;;;;;;5.00;3.20;;;;;;;7.11;75.54;99697.33;110448;1234;1016171;-90
2023/12/26 22:08:33;;;;;;;5.20;2.00;;;;;;;7.06;75.24;99703.64;110505;1231;1073052;-91
2023/12/26 22:13:24;;;;;;;4.00;1.90;;;;;;;7.00;75.49;99713.54;110481;1233;1016426;-89
2023/12/26 22:18:16;;;;;;;5.50;2.30;;;;;;;6.98;75.46;99732.48;110516;1231;1051005;-87
2023/12/26 22:23:08;;;;;;;7.00;2.60;;;;;;;7.00;75.74;99740.07;110472;1231;1018715;-89
2023/12/26 22:27:59;;;;;;;3.60;1.50;;;;;;;6.97;76.04;99760.54;110399;1230;1066024;-88
2023/12/26 22:32:51;;;;;;;5.70;2.00;;;;;;;6.90;76.79;99774.69;110487;1232;1015748;-88
2023/12/26 22:37:43;;;;;;;2.80;2.10;;;;;;;6.69;77.70;99782.61;110385;1231;1058391;-87
2023/12/26 22:42:35;;;;;;;3.00;1.60;;;;;;;6.50;78.26;99782.95;110436;1234;1016252;-89
2023/12/26 22:47:26;;;;;;;3.90;1.90;;;;;;;6.38;78.42;99801.67;110351;1230;1071006;-89
2023/12/26 22:52:18;;;;;;;3.40;1.80;;;;;;;6.26;78.71;99802.48;110302;1234;1015704;-89
2023/12/26 22:57:09;;;;;;;6.10;2.00;;;;;;;6.18;79.15;99802.99;110493;1231;1072390;-89
2023/12/26 23:02:01;;;;;;;3.70;1.80;;;;;;;6.13;79.37;99808.41;110453;1234;1016088;-88
2023/12/26 23:06:53;;;;;;;8.70;3.40;;;;;;;6.10;79.46;99808.18;110466;1231;1050899;-90
2023/12/26 23:11:44;;;;;;;5.30;1.90;;;;;;;6.06;79.20;99798.64;110432;1230;1016296;-90
2023/12/26 23:16:43;;;;;;;4.00;2.10;;;;;;;6.00;79.40;99822.61;110437;1230;1068336;-89
2023/12/26 23:21:35;;;;;;;5.90;2.10;;;;;;;5.95;79.50;99829.70;110275;1231;1133274;-89
2023/12/26 23:26:26;;;;;;;5.50;2.40;;;;;;;5.91;79.78;99839.39;110308;1231;1017532;-90
2023/12/26 23:31:18;;;;;;;3.20;2.00;;;;;;;5.89;79.82;99842.98;110290;1231;1073395;-90
2023/12/26 23:36:12;;;;;;;2.90;1.30;;;;;;;5.90;79.57;99843.86;110310;1234;1018822;-89
2023/12/26 23:41:06;;;;;;;3.30;1.40;;;;;;;5.92;79.24;99844.42;110426;1231;1050722;-88
2023/12/26 23:46:07;;;;;;;1.30;1.20;;;;;;;5.94;78.81;99849.63;110341;1231;1058259;-89
2023/12/26 23:50:59;;;;;;;1.90;0.90;;;;;;;5.95;78.44;99869.96;110313;1231;1073305;-90
2023/12/26 23:55:50;;;;;;;2.40;1.00;;;;;;;5.98;78.29;99880.18;110444;1232;1016179;-89
